Time;durP1;ratioP1;P1;durP2;ratioP2;P2;SDS_P1;SDS_P2;PMS_P1;PMS_P2;Temp;Humidity;BMP_temperature;BMP_pressure;BME280_temperature;BME280_humidity;BME280_pressure;Samples;Min_cycle;Max_cycle;Signal;HPM_P1;HPM_P2
2021/11/19 00:01:19;;;;;;;42.97;19.80;;;11.10;99.90;;;9.16;100.00;101789.72;4952041;29;20046;-81
2021/11/19 00:03:47;;;;;;;44.92;19.20;;;11.10;99.90;;;9.13;100.00;101785.41;4951799;29;20131;-81
2021/11/19 00:06:16;;;;;;;41.30;19.05;;;11.10;99.90;;;9.12;100.00;101788.25;4952003;29;20057;-81
2021/11/19 00:08:47;;;;;;;48.58;19.42;;;11.10;99.90;;;9.14;100.00;101792.56;4950985;29;20047;-81
2021/11/19 00:11:19;;;;;;;37.10;18.83;;;11.10;99.90;;;9.17;100.00;101785.97;4952040;29;20043;-81
2021/11/19 00:13:48;;;;;;;41.67;18.20;;;11.10;99.90;;;9.14;100.00;101786.28;4951808;28;20122;-81
2021/11/19 00:16:17;;;;;;;36.67;18.67;;;11.10;99.90;;;9.10;100.00;101780.28;4966225;28;20428;-81
2021/11/19 00:18:45;;;;;;;45.35;19.80;;;11.10;99.90;;;9.15;100.00;101788.84;4950956;29;20487;-81
2021/11/19 00:21:13;;;;;;;38.65;20.52;;;11.10;99.90;;;9.16;100.00;101778.84;4951512;29;20050;-81
2021/11/19 00:23:43;;;;;;;48.15;22.35;;;11.10;99.90;;;9.14;100.00;101780.84;4951716;29;20071;-81
2021/11/19 00:26:12;;;;;;;42.15;20.05;;;11.10;99.90;;;9.14;100.00;101776.28;4951517;29;20056;-81
2021/11/19 00:28:40;;;;;;;39.55;21.17;;;11.10;99.90;;;9.16;100.00;101768.00;4951083;29;20040;-81
2021/11/19 00:31:08;;;;;;;39.20;20.02;;;11.10;99.90;;;9.17;100.00;101764.25;4951415;29;20047;-81
2021/11/19 00:33:37;;;;;;;48.63;20.77;;;11.10;99.90;;;9.16;100.00;101763.41;4966115;28;20118;-81
2021/11/19 00:36:07;;;;;;;39.28;19.88;;;11.10;99.90;;;9.15;100.00;101766.25;4951437;29;20089;-81
2021/11/19 00:38:36;;;;;;;41.28;20.17;;;11.10;99.90;;;9.13;100.00;101770.97;4965223;28;20474;-81
2021/11/19 00:41:07;;;;;;;50.42;22.10;;;11.20;99.90;;;9.15;100.00;101766.25;4949842;29;20078;-81
2021/11/19 00:43:37;;;;;;;38.95;18.98;;;11.10;99.90;;;9.16;100.00;101759.84;4966074;28;20082;-81
2021/11/19 00:46:05;;;;;;;35.15;18.45;;;11.20;99.90;;;9.15;100.00;101760.81;4965839;28;20419;-81
2021/11/19 00:48:35;;;;;;;43.83;20.48;;;11.20;99.90;;;9.15;100.00;101766.25;4950527;29;20261;-81
2021/11/19 00:51:07;;;;;;;;;;;11.20;99.90;;;9.16;100.00;101765.28;4951630;29;20439;-81
2021/11/19 00:53:39;;;;;;;33.22;16.38;;;11.20;99.90;;;9.15;100.00;101768.97;4965958;28;19994;-81
2021/11/19 00:56:06;;;;;;;33.72;17.80;;;11.10;99.90;;;9.12;100.00;101769.25;4951309;28;20081;-81
2021/11/19 00:58:35;;;;;;;33.60;17.83;;;11.10;99.90;;;9.12;100.00;101782.81;4948779;29;20085;-81
2021/11/19 01:01:08;;;;;;;32.03;18.15;;;11.10;99.90;;;9.15;100.00;101785.28;4965601;28;20043;-81
2021/11/19 01:03:36;;;;;;;37.05;17.60;;;11.10;99.90;;;9.12;100.00;101785.53;4965611;28;20051;-81
2021/11/19 01:06:04;;;;;;;35.03;17.65;;;11.10;99.90;;;9.10;100.00;101787.56;4965689;28;20555;-81
2021/11/19 01:08:32;;;;;;;42.38;19.67;;;11.10;99.90;;;9.09;100.00;101794.84;4949690;28;20468;-81
2021/11/19 01:11:02;;;;;;;38.92;18.95;;;11.10;99.90;;;9.07;100.00;101796.00;4965510;28;20547;-81
2021/11/19 01:13:32;;;;;;;;;;;11.10;99.90;;;9.11;100.00;101794.72;4966045;28;20075;-81
2021/11/19 01:16:06;;;;;;;41.80;18.08;;;11.10;99.90;;;9.06;100.00;101794.28;4965519;28;19945;-81
2021/11/19 01:18:39;;;;;;;46.47;19.95;;;11.10;99.90;;;9.04;100.00;101793.56;4950057;28;20047;-81
2021/11/19 01:21:10;;;;;;;42.55;20.50;;;11.10;99.90;;;8.99;100.00;101797.56;4965498;28;20464;-81
2021/11/19 01:23:38;;;;;;;38.25;19.42;;;11.10;99.90;;;9.00;100.00;101793.88;4949307;29;20047;-81
2021/11/19 01:26:09;;;;;;;50.45;19.85;;;11.10;99.90;;;9.02;100.00;101799.13;4949471;29;20075;-81
2021/11/19 01:28:38;;;;;;;;;;;11.00;99.90;;;9.04;100.00;101802.56;4965237;28;20523;-81
2021/11/19 01:31:11;;;;;;;45.67;19.05;;;11.00;99.90;;;9.04;100.00;101796.28;4949230;29;19933;-81
2021/11/19 01:33:40;;;;;;;40.03;19.60;;;11.00;99.90;;;9.03;100.00;101797.28;4964828;28;20061;-81
2021/11/19 01:36:47;;;;;;;47.17;20.23;;;11.00;99.90;;;8.98;100.00;101786.84;4928918;29;20064;-81
2021/11/19 01:39:52;;;;;;;54.17;20.95;;;11.00;99.90;;;8.98;100.00;101789.56;4925494;29;20127;-81
2021/11/19 01:42:44;;;;;;;55.67;20.40;;;11.00;99.90;;;8.94;100.00;101799.84;4947593;28;20058;-81
2021/11/19 01:45:16;;;;;;;45.65;20.83;;;11.00;99.90;;;8.94;100.00;101801.72;4949990;28;20047;-81
2021/11/19 01:47:49;;;;;;;48.40;19.77;;;11.00;99.90;;;8.95;100.00;101803.44;4948344;29;20176;-81
2021/11/19 01:50:25;;;;;;;44.40;21.08;;;11.00;99.90;;;8.93;100.00;101803.56;4949270;28;20524;-82
2021/11/19 01:52:58;;;;;;;60.15;22.45;;;11.00;99.90;;;8.93;100.00;101806.28;4949003;28;20051;-81
2021/11/19 01:55:36;;;;;;;56.25;21.83;;;11.00;99.90;;;8.94;100.00;101809.84;4949356;29;20055;-81
2021/11/19 01:58:10;;;;;;;48.08;21.08;;;11.00;99.90;;;8.95;100.00;101804.28;4950823;28;20510;-81
2021/11/19 02:00:41;;;;;;;50.30;21.63;;;11.00;99.90;;;8.92;100.00;101807.28;4964838;28;20043;-81
2021/11/19 02:03:14;;;;;;;50.72;22.02;;;11.00;99.90;;;8.95;100.00;101809.72;4965051;28;20168;-82
2021/11/19 02:05:49;;;;;;;59.03;22.60;;;11.00;99.90;;;8.95;100.00;101804.28;4965259;28;20121;-82
2021/11/19 02:08:20;;;;;;;46.72;22.63;;;11.00;99.90;;;8.98;100.00;101814.00;4964128;28;20110;-81
2021/11/19 02:11:16;;;;;;;48.13;22.08;;;11.00;99.90;;;8.96;100.00;101805.97;4965067;28;20051;-81
2021/11/19 02:14:02;;;;;;;44.70;20.65;;;11.00;99.90;;;8.93;100.00;101810.84;4964734;28;20105;-81
2021/11/19 02:16:36;;;;;;;52.55;21.92;;;11.00;99.90;;;8.97;100.00;101812.28;4948898;29;20451;-81
2021/11/19 02:19:10;;;;;;;49.90;22.75;;;11.00;99.90;;;8.97;100.00;101810.44;4964148;28;20047;-81
2021/11/19 02:21:42;;;;;;;60.33;24.48;;;11.00;99.90;;;8.96;100.00;101811.41;4968537;28;20495;-81
2021/11/19 02:24:23;;;;;;;50.60;22.58;;;11.00;99.90;;;8.99;100.00;101815.72;4968503;28;20053;-82
2021/11/19 02:27:00;;;;;;;53.13;23.13;;;11.00;99.90;;;9.00;100.00;101798.41;4968692;28;20043;-81
2021/11/19 02:29:29;;;;;;;49.60;22.05;;;11.00;99.90;;;9.02;100.00;101798.28;4967748;28;20043;-81
2021/11/19 02:32:02;;;;;;;51.70;21.73;;;11.00;99.90;;;8.99;100.00;101799.44;4968601;28;20051;-81
2021/11/19 02:34:42;;;;;;;55.88;22.17;;;11.00;99.90;;;8.99;100.00;101789.44;4968453;28;20051;-81
2021/11/19 02:37:17;;;;;;;58.03;23.13;;;11.00;99.90;;;9.02;100.00;101798.28;4968307;28;20686;-81
2021/11/19 02:39:52;;;;;;;47.65;20.75;;;11.00;99.90;;;9.02;100.00;101788.25;4967788;28;20138;-82
2021/11/19 02:42:27;;;;;;;53.75;23.77;;;11.00;99.90;;;9.04;100.00;101785.41;4953534;28;20106;-82
2021/11/19 02:45:08;;;;;;;52.55;23.23;;;11.00;99.90;;;9.07;100.00;101785.13;4952081;29;20051;-81
2021/11/19 02:47:38;;;;;;;47.55;21.88;;;11.00;99.90;;;9.05;100.00;101788.00;4967285;28;20055;-81
2021/11/19 02:50:13;;;;;;;53.03;24.42;;;11.00;99.90;;;9.04;100.00;101785.41;4952042;29;20086;-82
2021/11/19 02:52:46;;;;;;;45.70;22.35;;;11.00;99.90;;;9.04;100.00;101790.84;4968081;28;20048;-82
2021/11/19 02:55:19;;;;;;;46.72;23.48;;;11.00;99.90;;;9.04;100.00;101786.25;4951966;29;20102;-81
2021/11/19 02:57:47;;;;;;;46.80;22.25;;;11.00;99.90;;;9.00;100.00;101788.44;4967155;28;20142;-81
2021/11/19 03:00:20;;;;;;;44.83;22.02;;;11.00;99.90;;;9.03;100.00;101789.16;4951755;29;20059;-82
2021/11/19 03:02:51;;;;;;;45.67;23.42;;;11.00;99.90;;;9.05;100.00;101788.00;4967777;28;20047;-81
2021/11/19 03:05:25;;;;;;;46.47;22.77;;;11.00;99.90;;;9.05;100.00;101788.00;4967992;28;20694;-81
2021/11/19 03:07:52;;;;;;;48.15;22.63;;;11.00;99.90;;;9.06;100.00;101777.97;4966963;28;20055;-81
2021/11/19 03:10:26;;;;;;;47.78;21.90;;;11.00;99.90;;;9.07;100.00;101779.72;4967777;28;20051;-82
2021/11/19 03:12:55;;;;;;;54.60;22.23;;;11.00;99.90;;;9.04;100.00;101772.69;4967707;28;20500;-82
2021/11/19 03:15:26;;;;;;;43.55;21.80;;;11.00;99.90;;;9.04;100.00;101780.84;4953027;29;20039;-82
2021/11/19 03:17:53;;;;;;;63.13;25.52;;;11.00;99.90;;;9.04;100.00;101774.56;4966785;28;20047;-81
2021/11/19 03:20:25;;;;;;;49.85;23.23;;;11.00;99.90;;;9.04;100.00;101774.56;4951262;29;20133;-81
2021/11/19 03:22:54;;;;;;;47.28;23.17;;;11.10;99.90;;;9.04;100.00;101774.56;4951365;29;20567;-81
2021/11/19 03:25:27;;;;;;;51.25;23.48;;;11.00;99.90;;;9.04;100.00;101774.56;4967791;28;20055;-81
2021/11/19 03:27:57;;;;;;;43.72;22.27;;;11.10;99.90;;;9.07;100.00;101763.41;4947452;28;20075;-82
2021/11/19 03:30:31;;;;;;;46.13;22.75;;;11.10;99.90;;;9.09;100.00;101762.25;4947761;28;20054;-81
2021/11/19 03:32:59;;;;;;;48.88;22.42;;;11.10;99.90;;;9.13;100.00;101762.84;4964210;28;20075;-81
2021/11/19 03:35:30;;;;;;;44.88;22.50;;;11.00;99.90;;;9.13;100.00;101771.81;4967336;28;20086;-82
2021/11/19 03:37:58;;;;;;;43.00;22.25;;;11.10;99.90;;;9.16;100.00;101765.28;4966543;28;20059;-82
2021/11/19 03:40:31;;;;;;;46.35;23.25;;;11.10;99.90;;;9.14;100.00;101765.41;4967097;28;20130;-82
2021/11/19 03:43:03;;;;;;;50.33;24.38;;;11.10;99.90;;;9.14;100.00;101768.13;4967059;28;20547;-81
2021/11/19 03:45:37;;;;;;;48.25;23.73;;;11.10;99.90;;;9.17;100.00;101772.41;4950571;28;20078;-81
2021/11/19 03:48:06;;;;;;;44.35;22.00;;;11.10;99.90;;;9.19;100.00;101774.00;4950249;29;20512;-82
2021/11/19 03:50:41;;;;;;;50.30;23.10;;;11.10;99.90;;;9.21;100.00;101773.81;4951014;28;20044;-81
2021/11/19 03:53:11;;;;;;;57.63;24.08;;;11.10;99.90;;;9.18;100.00;101777.69;4950834;29;20047;-81
2021/11/19 03:55:45;;;;;;;45.50;22.80;;;11.10;99.90;;;9.20;100.00;101780.28;4967018;28;20058;-81
2021/11/19 03:58:14;;;;;;;37.90;22.00;;;11.10;99.90;;;9.22;100.00;101780.13;4949766;28;20098;-81
2021/11/19 04:00:46;;;;;;;41.72;22.75;;;11.10;99.90;;;9.27;100.00;101781.41;4951982;29;20090;-81
2021/11/19 04:03:15;;;;;;;54.20;24.38;;;11.20;99.90;;;9.23;100.00;101774.53;4950510;29;20149;-81
2021/11/19 04:05:47;;;;;;;47.08;23.60;;;11.20;99.90;;;9.25;100.00;101782.53;4954867;28;20055;-81
2021/11/19 04:08:15;;;;;;;48.53;23.25;;;11.20;99.90;;;9.26;100.00;101776.97;4965708;28;20484;-81
2021/11/19 04:10:50;;;;;;;41.25;22.55;;;11.20;99.90;;;9.27;100.00;101772.38;4966704;28;20039;-81
2021/11/19 04:13:18;;;;;;;49.85;23.42;;;11.20;99.90;;;9.25;100.00;101777.09;4966480;28;20119;-82
2021/11/19 04:15:49;;;;;;;42.67;23.38;;;11.20;99.90;;;9.25;100.00;101780.66;4966680;28;20098;-81
2021/11/19 04:18:17;;;;;;;;;;;11.20;99.90;;;9.27;100.00;101784.13;4946910;28;20058;-81
2021/11/19 04:20:48;;;;;;;50.72;23.75;;;11.20;99.90;;;9.28;100.00;101783.13;4947239;29;19970;-81
2021/11/19 04:23:16;;;;;;;41.47;22.38;;;11.20;99.90;;;9.26;100.00;101787.84;4947245;28;20130;-81
2021/11/19 04:25:46;;;;;;;52.58;24.27;;;11.20;99.90;;;9.31;100.00;101784.66;4947105;29;20138;-81
2021/11/19 04:28:14;;;;;;;53.45;23.45;;;11.20;99.90;;;9.29;100.00;101790.28;4946353;29;20524;-81
2021/11/19 04:31:10;;;;;;;49.75;23.55;;;11.30;99.90;;;9.29;100.00;101783.97;4931400;29;20587;-81
2021/11/19 04:33:39;;;;;;;41.15;20.88;;;11.30;99.90;;;9.31;100.00;101788.25;4952500;28;20058;-82
2021/11/19 04:36:09;;;;;;;42.38;21.90;;;11.20;99.90;;;9.31;100.00;101788.25;4950116;29;20086;-82
2021/11/19 04:38:36;;;;;;;41.75;21.45;;;11.30;99.90;;;9.32;100.00;101791.84;4965487;28;20055;-82
2021/11/19 04:41:05;;;;;;;45.22;22.40;;;11.30;99.90;;;9.34;100.00;101785.25;4978123;23;20054;-84
2021/11/19 04:43:36;;;;;;;49.50;22.40;;;11.30;99.90;;;9.36;100.00;101785.94;4969771;28;20065;-83
2021/11/19 04:46:06;;;;;;;43.00;20.83;;;11.30;99.90;;;9.35;100.00;101786.97;4969160;28;20050;-84
2021/11/19 04:48:34;;;;;;;42.63;21.13;;;11.30;99.90;;;9.33;100.00;101778.13;4968555;28;20431;-83
2021/11/19 04:51:05;;;;;;;39.92;20.73;;;11.30;99.90;;;9.34;100.00;101793.38;4982072;28;20427;-84
2021/11/19 04:53:35;;;;;;;45.78;22.15;;;11.30;99.90;;;9.30;100.00;101783.81;4949877;28;20062;-83
2021/11/19 04:56:05;;;;;;;41.03;21.10;;;11.30;99.90;;;9.29;100.00;101779.41;4949696;28;20043;-83
2021/11/19 04:58:33;;;;;;;46.42;22.02;;;11.30;99.90;;;9.32;100.00;101786.41;4965151;28;20146;-83
2021/11/19 05:01:05;;;;;;;49.72;23.42;;;11.30;99.90;;;9.33;100.00;101786.25;4949732;29;20059;-83
2021/11/19 05:03:52;;;;;;;46.00;21.95;;;11.30;99.90;;;9.32;100.00;101778.25;4949633;29;20043;-83
2021/11/19 05:06:20;;;;;;;45.95;21.67;;;11.30;99.90;;;9.29;100.00;101784.84;4949624;29;20090;-87
2021/11/19 05:08:49;;;;;;;60.08;24.23;;;11.30;99.90;;;9.30;100.00;101781.09;4948708;28;20077;-82
2021/11/19 05:11:23;;;;;;;53.45;23.63;;;11.30;99.90;;;9.31;100.00;101787.38;4949532;28;20146;-85
2021/11/19 05:13:51;;;;;;;41.65;21.35;;;11.30;99.90;;;9.31;100.00;101782.84;4949461;29;20419;-85
2021/11/19 05:16:20;;;;;;;40.83;21.08;;;11.30;99.90;;;9.33;100.00;101785.41;4949531;28;20105;-85
2021/11/19 05:18:50;;;;;;;48.92;22.55;;;11.30;99.90;;;9.33;100.00;101782.69;4948661;28;20047;-85
2021/11/19 05:21:20;;;;;;;39.50;20.23;;;11.30;99.90;;;9.33;100.00;101779.97;4950808;29;20389;-85
2021/11/19 05:23:50;;;;;;;49.50;20.52;;;11.30;99.90;;;9.33;100.00;101775.41;4965323;28;20512;-85
2021/11/19 05:26:19;;;;;;;40.75;20.25;;;11.30;99.90;;;9.36;100.00;101769.66;4965631;28;20047;-87
2021/11/19 05:28:46;;;;;;;40.13;19.58;;;11.30;99.90;;;9.35;100.00;101775.25;4948561;29;20058;-86
2021/11/19 05:31:16;;;;;;;48.08;21.33;;;11.30;99.90;;;9.35;100.00;101773.38;4965501;28;20055;-86
2021/11/19 05:33:45;;;;;;;38.35;20.33;;;11.30;99.90;;;9.34;100.00;101774.38;4965502;28;20110;-87
2021/11/19 05:36:13;;;;;;;45.42;21.52;;;11.30;99.90;;;9.34;100.00;101774.38;4945870;28;20044;-85
2021/11/19 05:38:41;;;;;;;44.55;20.58;;;11.40;99.90;;;9.37;100.00;101770.53;4948660;29;20555;-83
2021/11/19 05:41:16;;;;;;;;;;;11.30;99.90;;;9.34;100.00;101777.09;4943436;28;20055;-85
2021/11/19 05:43:49;;;;;;;48.58;20.80;;;11.30;99.90;;;9.36;100.00;101777.81;4961758;28;19926;-85
2021/11/19 05:46:40;;;;;;;38.33;20.42;;;11.30;99.90;;;9.35;100.00;101778.81;4945847;28;20075;-85
2021/11/19 05:49:14;;;;;;;43.60;20.77;;;11.30;99.90;;;9.35;100.00;101781.53;4928901;29;20051;-84
2021/11/19 05:51:42;;;;;;;43.20;20.08;;;11.30;99.90;;;9.34;100.00;101782.53;4929803;29;20048;-86
2021/11/19 05:54:16;;;;;;;49.40;21.25;;;11.30;99.90;;;9.36;100.00;101780.53;4931094;29;20068;-85
2021/11/19 05:56:46;;;;;;;36.63;19.25;;;11.30;99.90;;;9.36;100.00;101774.22;4933497;29;20044;-86
2021/11/19 05:59:14;;;;;;;41.72;20.60;;;11.30;99.90;;;9.35;100.00;101778.81;4932731;29;20155;-85
2021/11/19 06:02:13;;;;;;;42.88;20.20;;;11.30;99.90;;;9.37;100.00;101786.84;4915511;29;20087;-85
2021/11/19 06:04:51;;;;;;;37.47;19.50;;;11.30;99.90;;;9.37;100.00;101787.69;4949703;29;20554;-84
2021/11/19 06:07:34;;;;;;;38.05;20.42;;;11.30;99.90;;;9.37;100.00;101787.69;4964791;28;20504;-84
2021/11/19 06:10:02;;;;;;;37.83;20.20;;;11.40;99.90;;;9.39;100.00;101788.38;4948255;28;20047;-84
2021/11/19 06:12:39;;;;;;;45.33;22.05;;;11.40;99.90;;;9.43;100.00;101783.53;4947638;29;20121;-84
2021/11/19 06:15:13;;;;;;;49.75;22.52;;;11.30;99.90;;;9.42;100.00;101786.38;4933144;29;20055;-86
2021/11/19 06:17:47;;;;;;;45.15;21.48;;;11.40;99.90;;;9.38;100.00;101786.66;4948241;29;20043;-83
2021/11/19 06:20:21;;;;;;;40.70;19.90;;;11.40;99.90;;;9.39;100.00;101790.25;4952225;29;20047;-84
2021/11/19 06:22:54;;;;;;;36.45;19.58;;;11.40;99.90;;;9.41;100.00;101793.69;4952317;29;20051;-84
2021/11/19 06:25:26;;;;;;;37.25;20.23;;;11.40;99.90;;;9.42;100.00;101799.97;4952245;28;20047;-84
2021/11/19 06:27:59;;;;;;;44.53;20.70;;;11.40;99.90;;;9.39;100.00;101799.25;4951366;28;20094;-84
2021/11/19 06:30:28;;;;;;;54.03;23.08;;;11.40;99.90;;;9.44;100.00;101808.81;4952104;29;20054;-83
2021/11/19 06:32:56;;;;;;;41.15;20.73;;;11.40;99.90;;;9.44;100.00;101808.81;4952203;29;20050;-84
2021/11/19 06:35:24;;;;;;;39.65;20.30;;;11.40;99.90;;;9.45;100.00;101805.13;4953394;29;20043;-86
2021/11/19 06:37:52;;;;;;;47.47;22.50;;;11.40;99.90;;;9.43;100.00;101807.13;4951306;29;20053;-86
2021/11/19 06:40:31;;;;;;;47.10;21.55;;;11.40;99.90;;;9.44;100.00;101800.69;4949906;28;20051;-86
2021/11/19 06:43:28;;;;;;;69.85;25.65;;;11.40;99.90;;;9.43;100.00;101809.84;4930157;28;20525;-86
2021/11/19 06:46:12;;;;;;;40.20;21.08;;;11.40;99.90;;;9.45;100.00;101802.41;4950935;28;20146;-85
2021/11/19 06:48:58;;;;;;;43.65;22.35;;;11.40;99.90;;;9.46;100.00;101818.56;4951240;28;20530;-85
2021/11/19 06:51:45;;;;;;;45.97;22.40;;;11.40;99.90;;;9.47;100.00;101808.56;4950482;29;20059;-86
2021/11/19 06:54:32;;;;;;;39.53;20.77;;;11.40;99.90;;;9.46;100.00;101809.53;4953224;28;20054;-85
2021/11/19 06:57:19;;;;;;;43.78;22.15;;;11.50;99.90;;;9.46;100.00;101812.25;4951624;28;20051;-86
2021/11/19 06:59:47;;;;;;;46.70;21.52;;;11.50;99.90;;;9.48;100.00;101815.69;4951043;29;20420;-85
2021/11/19 07:02:15;;;;;;;44.65;22.77;;;11.40;99.90;;;9.48;100.00;101812.97;4966106;28;20051;-86
2021/11/19 07:04:45;;;;;;;49.47;22.83;;;11.40;99.90;;;9.50;100.00;101813.66;4952921;28;20419;-85
2021/11/19 07:07:13;;;;;;;46.58;22.52;;;11.50;99.90;;;9.50;100.00;101819.09;4952121;28;20082;-85
2021/11/19 07:09:42;;;;;;;42.65;23.00;;;11.50;99.90;;;9.51;100.00;101816.25;4951330;28;20055;-86
2021/11/19 07:12:13;;;;;;;46.80;23.50;;;11.50;99.90;;;9.54;100.00;101815.13;4950272;29;20153;-85
2021/11/19 07:14:49;;;;;;;51.13;24.92;;;11.50;99.90;;;9.57;100.00;101822.97;4951364;28;20130;-86
2021/11/19 07:17:17;;;;;;;39.30;21.75;;;11.50;99.90;;;9.60;100.00;101828.13;4948043;28;20040;-85
2021/11/19 07:19:45;;;;;;;42.00;22.50;;;11.50;99.90;;;9.61;100.00;101823.53;4931433;29;20205;-85
2021/11/19 07:22:14;;;;;;;44.83;22.85;;;11.60;99.90;;;9.64;100.00;101826.81;4947110;29;20137;-87
2021/11/19 07:24:44;;;;;;;55.10;24.45;;;11.60;99.90;;;9.65;100.00;101822.22;4951280;29;20047;-85
2021/11/19 07:27:15;;;;;;;46.13;22.83;;;11.60;99.90;;;9.63;100.00;101835.97;4965002;28;20082;-86
2021/11/19 07:29:43;;;;;;;42.63;22.33;;;11.50;99.90;;;9.62;100.00;101828.84;4950506;28;20044;-88
2021/11/19 07:32:36;;;;;;;41.97;22.30;;;11.60;99.90;;;9.65;100.00;101833.09;4956232;28;20051;-88
2021/11/19 07:35:37;;;;;;;48.33;23.17;;;11.60;99.90;;;9.68;100.00;101833.69;4955613;28;20556;-87
2021/11/19 07:38:19;;;;;;;37.00;20.65;;;11.60;99.90;;;9.68;100.00;101844.56;4966190;28;20767;-87
2021/11/19 07:41:22;;;;;;;40.77;21.97;;;11.60;99.90;;;9.68;100.00;101841.81;4948542;28;20564;-87
2021/11/19 07:44:10;;;;;;;43.20;23.07;;;11.60;99.90;;;9.69;100.00;101848.13;4951445;29;20051;-87
2021/11/19 07:47:04;;;;;;;43.75;21.27;;;11.60;99.90;;;9.72;100.00;101837.81;4950782;28;20784;-88
2021/11/19 07:49:33;;;;;;;43.17;22.23;;;11.60;99.90;;;9.74;100.00;101837.66;4950036;29;20130;-88
2021/11/19 07:52:09;;;;;;;42.63;21.42;;;11.60;99.90;;;9.75;100.00;101844.84;4949340;29;20047;-87
2021/11/19 07:54:36;;;;;;;37.50;20.35;;;11.60;99.90;;;9.75;100.00;101840.25;4950697;28;20156;-88
2021/11/19 07:57:05;;;;;;;41.03;21.75;;;11.60;99.90;;;9.77;100.00;101842.81;4950539;28;20071;-87
2021/11/19 07:59:35;;;;;;;39.20;20.83;;;11.70;99.90;;;9.78;100.00;101853.53;4965916;28;20054;-87
2021/11/19 08:02:03;;;;;;;41.97;21.23;;;11.60;99.90;;;9.79;100.00;101863.41;4949487;29;20146;-87
2021/11/19 08:04:35;;;;;;;36.20;20.35;;;11.70;99.90;;;9.79;100.00;101863.41;4951826;29;20039;-88
2021/11/19 08:07:10;;;;;;;41.10;20.75;;;11.70;99.90;;;9.79;100.00;101851.69;4966592;28;20047;-87
2021/11/19 08:09:53;;;;;;;43.72;20.80;;;11.70;99.90;;;9.78;100.00;101849.97;4951551;28;20059;-87
2021/11/19 08:12:43;;;;;;;33.05;18.02;;;11.70;99.90;;;9.78;100.00;101861.69;4947475;29;20046;-88
2021/11/19 08:15:22;;;;;;;34.33;19.50;;;11.70;99.90;;;9.81;100.00;101854.28;4950460;29;20051;-88
2021/11/19 08:17:52;;;;;;;38.38;19.55;;;11.70;99.90;;;9.81;100.00;101854.28;4948533;28;20051;-87
2021/11/19 08:20:36;;;;;;;37.58;19.15;;;11.70;99.90;;;9.77;100.00;101860.00;4949603;29;20539;-88
2021/11/19 08:23:05;;;;;;;37.22;17.65;;;11.70;99.90;;;9.81;100.00;101859.72;4949545;29;20074;-88
2021/11/19 08:25:33;;;;;;;34.33;17.65;;;11.70;99.90;;;9.78;100.00;101849.97;4949588;28;20070;-87
2021/11/19 08:28:03;;;;;;;31.67;16.95;;;11.70;99.90;;;9.78;100.00;101847.25;4950680;28;20357;-88
2021/11/19 08:30:35;;;;;;;33.95;17.33;;;11.70;99.90;;;9.77;100.00;101853.69;4950482;29;20086;-86
2021/11/19 08:33:05;;;;;;;35.92;17.98;;;11.70;99.90;;;9.83;100.00;101852.25;4949493;28;20051;-87
2021/11/19 08:35:35;;;;;;;29.63;16.13;;;11.70;99.90;;;9.84;100.00;101853.97;4951360;29;20562;-88
2021/11/19 08:38:04;;;;;;;34.10;17.27;;;11.70;99.90;;;9.85;100.00;101852.97;4948954;29;20090;-88
2021/11/19 08:40:32;;;;;;;31.65;16.77;;;11.70;99.90;;;9.84;100.00;101851.25;4950402;29;20134;-87
2021/11/19 08:43:00;;;;;;;32.08;17.50;;;11.70;99.90;;;9.86;100.00;101850.09;4951016;28;20043;-88
2021/11/19 08:45:27;;;;;;;28.73;17.13;;;11.70;99.90;;;9.89;100.00;101846.22;4949708;29;20133;-88
2021/11/19 08:47:57;;;;;;;31.85;16.17;;;11.80;99.90;;;9.88;100.00;101850.81;4965016;28;20133;-88
2021/11/19 08:50:29;;;;;;;30.02;16.23;;;11.80;99.90;;;9.92;100.00;101848.66;4965000;28;20059;-88
2021/11/19 08:52:57;;;;;;;;;;;11.80;99.90;;;9.91;100.00;101844.22;4949162;29;20051;-88
2021/11/19 08:55:25;;;;;;;31.10;16.13;;;11.80;99.90;;;9.94;100.00;101838.50;4950915;28;20387;-88
2021/11/19 08:57:55;;;;;;;29.33;16.48;;;11.80;99.90;;;9.93;100.00;101842.19;4949873;28;20047;-89
2021/11/19 09:00:28;;;;;;;30.10;16.77;;;11.80;99.90;;;9.93;100.00;101848.50;4949087;29;20469;-87
2021/11/19 09:02:56;;;;;;;38.05;17.73;;;11.80;99.90;;;9.96;100.00;101856.38;4948644;29;20123;-89
2021/11/19 09:05:25;;;;;;;32.15;17.50;;;11.70;99.90;;;9.94;100.00;101855.66;4950968;29;20106;-87
2021/11/19 09:07:53;;;;;;;27.35;16.27;;;11.80;99.90;;;9.96;100.00;101856.38;4949931;29;20106;-87
2021/11/19 09:10:23;;;;;;;32.10;17.55;;;11.80;99.90;;;9.97;100.00;101859.94;4949188;28;20042;-88
2021/11/19 09:12:51;;;;;;;25.90;15.98;;;11.80;99.90;;;10.00;100.00;101865.09;4948550;29;20043;-88
2021/11/19 09:15:22;;;;;;;33.58;17.70;;;11.80;99.90;;;10.05;100.00;101856.47;4950759;29;20043;-88
2021/11/19 09:18:18;;;;;;;47.05;21.00;;;11.80;99.90;;;10.07;100.00;101855.34;4961125;28;20134;-88
2021/11/19 09:20:58;;;;;;;35.42;18.80;;;11.80;99.90;;;10.11;100.00;101856.75;4949552;28;20452;-88
2021/11/19 09:23:30;;;;;;;34.77;19.07;;;11.90;99.90;;;10.17;100.00;101852.59;4948221;28;20401;-88
2021/11/19 09:26:06;;;;;;;32.60;18.13;;;11.90;99.90;;;10.18;100.00;101862.44;4947741;28;20737;-87
2021/11/19 09:28:38;;;;;;;33.45;19.50;;;11.90;99.90;;;10.21;100.00;101864.03;4944999;28;20047;-87
2021/11/19 09:31:09;;;;;;;34.50;19.35;;;11.90;99.90;;;10.21;100.00;101864.03;4947212;28;20854;-88
2021/11/19 09:33:37;;;;;;;;;;;12.00;99.90;;;10.27;100.00;101866.16;4950592;29;20417;-88
2021/11/19 09:36:06;;;;;;;33.50;18.85;;;12.00;99.90;;;10.28;100.00;101868.72;4950280;28;20012;-88
2021/11/19 09:38:34;;;;;;;43.17;20.50;;;12.00;99.90;;;10.28;100.00;101870.56;4948998;28;20032;-87
2021/11/19 09:41:44;;;;;;;33.08;19.35;;;12.00;99.90;;;10.25;100.00;101862.72;4949071;28;20109;-88
2021/11/19 09:44:55;;;;;;;40.65;21.83;;;12.00;99.90;;;10.25;100.00;101870.88;4917496;29;20513;-86
2021/11/19 09:48:23;;;;;;;44.28;22.67;;;12.00;99.90;;;10.23;100.00;101862.00;4930791;29;20043;-86
2021/11/19 09:51:59;;;;;;;42.45;23.75;;;12.00;99.90;;;10.24;100.00;101871.88;4935539;29;20055;-87
2021/11/19 09:55:32;;;;;;;47.33;24.17;;;12.00;99.90;;;10.25;100.00;101868.16;4949966;29;20106;-87
2021/11/19 09:58:54;;;;;;;55.58;26.40;;;12.00;99.90;;;10.25;100.00;101873.59;4947922;28;20055;-87
2021/11/19 10:02:11;;;;;;;44.55;24.58;;;12.00;99.90;;;10.24;100.00;101871.88;4947849;28;20054;-87
2021/11/19 10:05:08;;;;;;;48.22;25.42;;;12.00;99.90;;;10.24;100.00;101871.88;4904378;28;20063;-87
2021/11/19 10:07:49;;;;;;;55.72;27.63;;;12.00;99.90;;;10.25;100.00;101873.59;4928920;29;20074;-87
2021/11/19 10:10:52;;;;;;;44.72;25.40;;;12.10;99.90;;;10.26;100.00;101876.19;4949024;29;20059;-87
2021/11/19 10:13:42;;;;;;;45.67;25.88;;;12.10;99.90;;;10.25;100.00;101879.88;4972180;28;20055;-87
2021/11/19 10:16:26;;;;;;;56.70;28.55;;;12.10;99.90;;;10.25;100.00;101876.31;4950066;28;20118;-87
2021/11/19 10:19:02;;;;;;;50.20;26.73;;;12.10;99.90;;;10.27;100.00;101871.59;4949313;28;20051;-87
2021/11/19 10:21:35;;;;;;;54.10;27.52;;;12.10;99.90;;;10.25;100.00;101873.59;4948970;29;20094;-87
2021/11/19 10:24:16;;;;;;;51.00;28.15;;;12.10;99.90;;;10.26;100.00;101870.72;4943531;29;20519;-87
2021/11/19 10:26:43;;;;;;;68.15;30.13;;;12.10;99.90;;;10.25;100.00;101874.44;4929640;29;20088;-87
2021/11/19 10:29:21;;;;;;;57.97;28.58;;;12.10;99.90;;;10.26;100.00;101880.75;4928836;29;20142;-87
2021/11/19 10:31:51;;;;;;;50.38;27.42;;;12.10;99.90;;;10.28;100.00;101885.03;4942860;29;20456;-87